Terminal Aerodrome Forecast
Issued by NWS

Home | Current Version | Previous Version | Graphics & Text | Print | Product List | Glossary On
Versions: 1 2 3 4 5 6 7 8 9 10 11 12 13 14
809
FTUS43 KTOP 020520
TAFMHK
TAF
KMHK 020520Z 0206/0306 34004KT P6SM SCT015 BKN020
     FM020800 34007KT P6SM SCT025 OVC040
     FM021900 35005KT P6SM BKN040=

USA.gov is the U.S. government's official web portal to all federal, state and local government web resources and services.